Time,TemperatureF,DewpointF,PressureIn,WindDirection,WindDirectionDegrees,WindSpeedMPH,WindSpeedGustMPH,Humidity,HourlyPrecipIn,Conditions,Clouds,dailyrainin,SoftwareType,DateUTC
2013-08-30 00:24:00,72.0,71.0,30.00,SE,128,0.0,0.0,96,0.00,,,0.13,,2013-08-30 04:24:00,
2013-08-30 00:54:00,72.0,71.0,30.00,SE,128,0.0,0.0,96,0.00,,,0.13,,2013-08-30 04:54:00,
2013-08-30 01:23:00,71.0,70.0,30.00,SE,128,0.0,0.0,97,0.00,,,0.13,,2013-08-30 05:23:00,
2013-08-30 01:52:00,71.0,71.0,30.00,SE,128,0.0,0.0,99,0.00,,,0.13,,2013-08-30 05:52:00,
2013-08-30 02:22:00,70.0,70.0,30.00,SE,128,0.0,0.0,99,0.00,,,0.13,,2013-08-30 06:22:00,
2013-08-30 02:53:00,69.0,69.0,29.99,SE,128,0.0,0.0,99,0.04,,,0.12,,2013-08-30 06:53:00,
2013-08-30 03:21:00,69.0,69.0,29.99,SE,128,0.0,0.0,99,0.13,,,0.13,,2013-08-30 07:21:00,
2013-08-30 03:53:00,68.0,68.0,29.98,SE,128,0.0,0.0,99,0.09,,,0.13,,2013-08-30 07:53:00,
2013-08-30 04:22:00,68.0,68.0,29.98,SE,128,0.0,0.0,99,0.00,,,0.13,,2013-08-30 08:22:00,
2013-08-30 04:52:00,67.0,67.0,29.98,SE,128,0.0,0.0,99,0.00,,,0.13,,2013-08-30 08:52:00,
2013-08-30 05:22:00,67.0,67.0,29.98,SE,128,0.0,0.0,99,0.00,,,0.13,,2013-08-30 09:22:00,
2013-08-30 05:53:00,67.0,67.0,29.98,SE,128,0.0,0.0,99,0.00,,,0.13,,2013-08-30 09:53:00,
2013-08-30 06:23:00,66.0,66.0,29.98,SE,128,0.0,0.0,99,0.00,,,0.13,,2013-08-30 10:23:00,
2013-08-30 06:53:00,66.0,66.0,29.98,SE,128,0.0,0.0,99,0.00,,,0.13,,2013-08-30 10:53:00,
2013-08-30 07:22:00,66.0,66.0,29.98,SE,128,0.0,0.0,99,0.00,,,0.13,,2013-08-30 11:22:00,
2013-08-30 07:52:00,66.0,66.0,29.98,SE,128,0.0,0.0,99,0.00,,,0.13,,2013-08-30 11:52:00,
2013-08-30 08:21:00,66.0,66.0,29.97,SE,128,0.0,0.0,99,0.00,,,0.13,,2013-08-30 12:21:00,
2013-08-30 08:52:00,67.0,67.0,29.97,South,184,0.0,0.0,99,0.00,,,0.13,,2013-08-30 12:52:00,
2013-08-30 09:21:00,72.0,72.0,29.97,SW,228,1.0,6.0,99,0.00,,,0.13,,2013-08-30 13:21:00,
2013-08-30 09:52:00,76.0,75.0,29.96,SW,234,5.0,6.0,98,0.00,,,0.13,,2013-08-30 13:52:00,
2013-08-30 10:21:00,79.0,75.0,29.96,West,270,7.0,10.0,88,0.00,,,0.13,,2013-08-30 14:21:00,
2013-08-30 10:52:00,82.0,74.0,29.96,West,273,7.0,9.0,77,0.00,,,0.13,,2013-08-30 14:52:00,
2013-08-30 11:22:00,85.0,75.0,29.96,WNW,283,5.0,6.0,72,0.00,,,0.13,,2013-08-30 15:22:00,
2013-08-30 11:54:00,86.0,74.0,29.95,West,272,6.0,10.0,67,0.00,,,0.13,,2013-08-30 15:54:00,
2013-08-30 12:25:00,87.0,74.0,29.95,WNW,286,6.0,12.0,65,0.00,,,0.13,,2013-08-30 16:25:00,
2013-08-30 12:53:00,88.0,72.0,29.94,West,262,6.0,7.0,60,0.00,,,0.13,,2013-08-30 16:53:00,
2013-08-30 13:23:00,89.0,73.0,29.93,WSW,243,1.0,6.0,60,0.00,,,0.13,,2013-08-30 17:23:00,
2013-08-30 13:53:00,89.0,70.0,29.92,WSW,258,6.0,7.0,53,0.00,,,0.13,,2013-08-30 17:53:00,
2013-08-30 14:22:00,90.0,72.0,29.91,WSW,257,9.0,12.0,55,0.00,,,0.13,,2013-08-30 18:22:00,
2013-08-30 14:52:00,90.0,72.0,29.90,SW,219,0.0,3.0,55,0.00,,,0.13,,2013-08-30 18:52:00,
2013-08-30 15:21:00,90.0,72.0,29.90,SW,234,0.0,0.0,56,0.00,,,0.13,,2013-08-30 19:21:00,
2013-08-30 15:53:00,91.0,73.0,29.88,SW,234,3.0,3.0,56,0.00,,,0.13,,2013-08-30 19:53:00,
2013-08-30 16:22:00,91.0,73.0,29.87,West,271,8.0,13.0,55,0.00,,,0.13,,2013-08-30 20:22:00,
2013-08-30 16:52:00,91.0,73.0,29.85,SSE,157,2.0,2.0,55,0.00,,,0.13,,2013-08-30 20:52:00,
2013-08-30 17:22:00,91.0,74.0,29.85,SSW,205,0.0,5.0,58,0.00,,,0.13,,2013-08-30 21:22:00,
2013-08-30 17:54:00,91.0,73.0,29.84,WSW,250,1.0,3.0,56,0.00,,,0.13,,2013-08-30 21:54:00,
2013-08-30 18:24:00,90.0,73.0,29.84,WSW,240,5.0,6.0,58,0.00,,,0.13,,2013-08-30 22:24:00,
2013-08-30 18:54:00,89.0,74.0,29.82,West,260,5.0,7.0,62,0.00,,,0.13,,2013-08-30 22:54:00,
2013-08-30 19:22:00,90.0,75.0,29.82,WSW,248,3.0,8.0,62,0.00,,,0.13,,2013-08-30 23:22:00,
2013-08-30 19:53:00,88.0,75.0,29.83,West,266,8.0,10.0,65,0.00,,,0.13,,2013-08-30 23:53:00,
2013-08-30 20:22:00,86.0,76.0,29.82,WSW,249,7.0,8.0,73,0.00,,,0.13,,2013-08-31 00:22:00,
2013-08-30 20:52:00,85.0,78.0,29.83,SW,231,3.0,7.0,80,0.00,,,0.13,,2013-08-31 00:52:00,
2013-08-30 21:21:00,83.0,75.0,29.84,SSW,196,6.0,10.0,78,0.00,,,0.13,,2013-08-31 01:21:00,
2013-08-30 21:52:00,82.0,76.0,29.85,SW,224,0.0,0.0,81,0.00,,,0.13,,2013-08-31 01:52:00,
2013-08-30 22:22:00,81.0,76.0,29.84,SW,224,0.0,0.0,85,0.00,,,0.13,,2013-08-31 02:22:00,
2013-08-30 22:52:00,81.0,77.0,29.84,NW,306,0.0,0.0,88,0.00,,,0.13,,2013-08-31 02:52:00,
2013-08-30 23:22:00,79.0,74.0,29.84,NNW,339,6.0,8.0,86,0.00,,,0.13,,2013-08-31 03:22:00,
2013-08-30 23:54:00,78.0,72.0,29.84,NW,323,7.0,9.0,81,0.00,,,0.13,,2013-08-31 03:54:00,